createdAt,value
2019-03-04T00:01:09.228Z,97175.05
2019-03-04T00:04:14.037Z,97177.84
2019-03-04T00:07:18.489Z,97170.16
2019-03-04T00:10:22.927Z,97171.19
2019-03-04T00:13:27.758Z,97167.55
2019-03-04T00:16:32.186Z,97152.20
2019-03-04T00:19:36.623Z,97137.88
2019-03-04T00:22:41.058Z,97130.97
2019-03-04T00:25:45.761Z,97132.13
2019-03-04T00:28:50.486Z,97126.16
2019-03-04T00:31:55.227Z,97119.58
2019-03-04T00:34:59.664Z,97129.27
2019-03-04T00:38:04.105Z,97122.47
2019-03-04T00:41:08.542Z,97128.42
2019-03-04T00:44:13.047Z,97118.82
2019-03-04T00:47:17.481Z,97123.94
2019-03-04T00:50:22.687Z,97115.33
2019-03-04T00:53:27.132Z,97106.04
2019-03-04T00:56:31.842Z,97099.41
2019-03-04T00:59:36.279Z,97098.06
2019-03-04T01:02:40.717Z,97083.15
2019-03-04T01:05:45.180Z,97078.61
2019-03-04T01:08:49.611Z,97067.48
2019-03-04T01:11:54.375Z,97052.66
2019-03-04T01:14:59.096Z,97050.65
2019-03-04T01:18:03.830Z,97042.27
2019-03-04T01:21:08.278Z,97036.52
2019-03-04T01:24:12.984Z,97033.94
2019-03-04T01:27:17.715Z,97034.80
2019-03-04T01:30:24.074Z,97022.83
2019-03-04T01:33:28.821Z,97024.70
2019-03-04T01:36:33.250Z,97009.95
2019-03-04T01:39:37.977Z,96998.33
2019-03-04T01:42:42.404Z,96992.72
2019-03-04T01:45:46.847Z,96980.36
2019-03-04T01:48:51.297Z,96971.62
2019-03-04T01:51:55.745Z,96964.47
2019-03-04T01:55:00.499Z,96964.41
2019-03-04T01:58:04.926Z,96957.81
2019-03-04T02:01:09.363Z,96955.19
2019-03-04T02:04:13.857Z,96953.30
2019-03-04T02:07:18.240Z,96956.84
2019-03-04T02:10:23.033Z,96969.64
2019-03-04T02:13:27.465Z,96974.21
2019-03-04T02:16:32.184Z,96975.02
2019-03-04T02:19:36.632Z,96969.09
2019-03-04T02:22:41.070Z,96969.05
2019-03-04T02:25:50.216Z,96964.47
2019-03-04T02:28:54.993Z,96945.95
2019-03-04T02:31:59.724Z,96956.95
2019-03-04T02:35:05.200Z,96954.05
2019-03-04T02:38:09.903Z,96943.23
2019-03-04T02:41:14.735Z,96925.67
2019-03-04T02:44:19.567Z,96926.59
2019-03-04T02:47:24.306Z,96917.91
2019-03-04T02:50:28.747Z,96910.07
2019-03-04T02:53:33.262Z,96900.41
2019-03-04T02:56:37.709Z,96873.06
2019-03-04T02:59:42.144Z,96879.12
2019-03-04T03:02:46.668Z,96880.80
2019-03-04T03:05:51.112Z,96874.58
2019-03-04T03:08:55.878Z,96866.73
2019-03-04T03:12:00.331Z,96856.20
2019-03-04T03:15:11.368Z,96817.84
2019-03-04T03:18:15.806Z,96822.41
2019-03-04T03:21:20.260Z,96834.16
2019-03-04T03:24:24.725Z,96838.73
2019-03-04T03:27:29.145Z,96828.81
2019-03-04T03:30:33.601Z,96815.52
2019-03-04T03:33:38.030Z,96812.53
2019-03-04T03:36:42.464Z,96803.12
2019-03-04T03:39:46.892Z,96800.67
2019-03-04T03:42:51.394Z,96812.31
2019-03-04T03:45:55.835Z,96802.41
2019-03-04T03:49:00.255Z,96815.44
2019-03-04T03:52:04.689Z,96808.52
2019-03-04T03:55:14.557Z,96799.09
2019-03-04T03:58:19.252Z,96793.06
2019-03-04T04:01:23.681Z,96774.45
2019-03-04T04:04:28.122Z,96773.70
2019-03-04T04:07:32.553Z,96761.73
2019-03-04T04:10:37.258Z,96756.57
2019-03-04T04:13:41.694Z,96745.23
2019-03-04T04:16:46.125Z,96739.36
2019-03-04T04:19:52.952Z,96725.05
2019-03-04T04:22:56.986Z,96715.68
2019-03-04T04:26:01.749Z,96717.14
2019-03-04T04:29:07.793Z,96708.36
2019-03-04T04:32:12.512Z,96704.80
2019-03-04T04:35:16.937Z,96705.41
2019-03-04T04:38:21.667Z,96691.59
2019-03-04T04:41:26.090Z,96691.59
2019-03-04T04:44:30.524Z,96679.55
2019-03-04T04:47:35.026Z,96665.69
2019-03-04T04:50:39.455Z,96660.46
2019-03-04T04:53:43.899Z,96632.50
2019-03-04T04:56:48.318Z,96614.12
2019-03-04T04:59:52.754Z,96614.06
2019-03-04T05:02:57.194Z,96602.98
2019-03-04T05:06:01.891Z,96584.79
2019-03-04T05:09:07.195Z,96574.94
2019-03-04T05:12:11.968Z,96562.35
2019-03-04T05:15:18.035Z,96553.04
2019-03-04T05:18:22.761Z,96544.84
2019-03-04T05:21:27.490Z,96541.77
2019-03-04T05:24:31.927Z,96552.10
2019-03-04T05:27:36.369Z,96549.36
2019-03-04T05:30:40.801Z,96539.71
2019-03-04T05:33:45.236Z,96533.61
2019-03-04T05:36:49.663Z,96524.41
2019-03-04T05:39:54.438Z,96525.78
2019-03-04T05:42:58.874Z,96535.02
2019-03-04T05:46:03.300Z,96545.67
2019-03-04T05:49:07.739Z,96558.49
2019-03-04T05:52:12.443Z,96564.73
2019-03-04T05:55:17.006Z,96552.55
2019-03-04T05:58:21.441Z,96546.26
2019-03-04T06:01:29.603Z,96517.77
2019-03-04T06:04:34.052Z,96498.00
2019-03-04T06:07:40.130Z,96456.97
2019-03-04T06:10:44.834Z,96462.02
2019-03-04T06:13:49.251Z,96459.71
2019-03-04T06:16:53.678Z,96472.04
2019-03-04T06:19:58.110Z,96480.28
2019-03-04T06:23:02.560Z,96491.59
2019-03-04T06:26:07.246Z,96492.66
2019-03-04T06:29:12.975Z,96499.77
2019-03-04T06:32:17.804Z,96493.86
2019-03-04T06:35:25.951Z,96495.93
2019-03-04T06:38:30.421Z,96502.94
2019-03-04T06:41:35.212Z,96503.12
2019-03-04T06:44:39.654Z,96502.25
2019-03-04T06:47:44.514Z,96496.98
2019-03-04T06:50:53.338Z,96502.22
2019-03-04T06:54:11.236Z,96498.27
2019-03-04T06:57:16.720Z,96519.58
2019-03-04T07:00:28.567Z,96504.35
2019-03-04T07:03:33.362Z,96521.11
2019-03-04T07:06:38.044Z,96511.63
2019-03-04T07:09:42.490Z,96516.70
2019-03-04T07:12:47.190Z,96513.25
2019-03-04T07:15:51.649Z,96536.77
2019-03-04T07:18:56.341Z,96529.84
2019-03-04T07:22:00.769Z,96536.75
2019-03-04T07:25:08.172Z,96532.48
2019-03-04T07:28:12.611Z,96537.53
2019-03-04T07:31:17.131Z,96547.78
2019-03-04T07:34:21.569Z,96563.55
2019-03-04T07:37:26.006Z,96542.09
2019-03-04T07:40:30.448Z,96559.64
2019-03-04T07:43:35.218Z,96537.85
2019-03-04T07:46:39.942Z,96560.44
2019-03-04T07:49:48.732Z,96561.16
2019-03-04T07:52:58.312Z,96568.91
2019-03-04T07:56:03.055Z,96581.48
2019-03-04T07:59:07.483Z,96595.88
2019-03-04T08:02:11.926Z,96605.76
2019-03-04T08:05:16.372Z,96619.88
2019-03-04T08:08:21.156Z,96618.84
2019-03-04T08:11:49.951Z,96648.91
2019-03-04T08:14:54.394Z,96680.75
2019-03-04T08:17:58.907Z,96714.52
2019-03-04T08:21:03.625Z,96733.76
2019-03-04T08:24:08.059Z,96761.90
2019-03-04T08:27:12.663Z,96804.66
2019-03-04T08:30:19.311Z,96784.98
2019-03-04T08:33:24.081Z,96779.75
2019-03-04T08:36:28.821Z,96782.23
2019-03-04T08:39:33.250Z,96827.14
2019-03-04T08:42:37.697Z,96847.79
2019-03-04T08:45:42.145Z,96841.34
2019-03-04T08:48:46.576Z,96803.60
2019-03-04T08:51:51.334Z,96802.11
2019-03-04T08:54:55.775Z,96773.91
2019-03-04T08:58:00.211Z,96753.14
2019-03-04T09:01:04.724Z,96753.52
2019-03-04T09:04:09.547Z,96744.35
2019-03-04T09:07:13.991Z,96731.58
2019-03-04T09:10:27.997Z,96729.53
2019-03-04T09:13:32.752Z,96738.11
2019-03-04T09:16:37.193Z,96757.88
2019-03-04T09:19:41.627Z,96824.77
2019-03-04T09:22:46.072Z,96725.45
2019-03-04T09:26:09.001Z,96726.38
2019-03-04T09:29:13.685Z,96716.19
2019-03-04T09:32:18.123Z,96696.70
2019-03-04T09:35:22.974Z,96702.39
2019-03-04T09:38:27.702Z,96700.88
2019-03-04T09:41:32.158Z,96690.23
2019-03-04T09:44:36.849Z,96679.98
2019-03-04T09:47:41.359Z,96668.22
2019-03-04T09:50:45.787Z,96631.11
2019-03-04T09:53:50.232Z,96685.91
2019-03-04T09:56:54.676Z,96687.16
2019-03-04T09:59:59.110Z,96655.20
2019-03-04T10:03:43.132Z,96691.16
2019-03-04T10:07:28.710Z,96705.08
2019-03-04T10:10:45.844Z,96691.88
2019-03-04T10:14:07.009Z,96701.64
2019-03-04T10:17:53.550Z,96708.07
2019-03-04T10:21:26.158Z,96707.92
2019-03-04T10:24:43.540Z,96717.88
2019-03-04T10:28:26.992Z,96668.75
2019-03-04T10:32:06.365Z,96700.19
2019-03-04T10:35:34.365Z,96688.65
2019-03-04T10:39:04.744Z,96708.28
2019-03-04T10:42:51.667Z,96701.38
2019-03-04T10:46:27.727Z,96732.53
2019-03-04T10:49:32.582Z,96748.09
2019-03-04T10:52:37.028Z,96737.34
2019-03-04T10:55:42.510Z,96730.87
2019-03-04T10:58:46.989Z,96734.00
2019-03-04T11:01:51.425Z,96733.67
2019-03-04T11:04:56.136Z,96707.47
2019-03-04T11:08:00.862Z,96704.38
2019-03-04T11:11:05.700Z,96691.47
2019-03-04T11:14:10.525Z,96666.22
2019-03-04T11:17:15.261Z,96677.77
2019-03-04T11:20:19.706Z,96700.09
2019-03-04T11:23:25.134Z,96713.60
2019-03-04T11:26:29.564Z,96739.25
2019-03-04T11:29:34.284Z,96735.07
2019-03-04T11:32:39.013Z,96747.15
2019-03-04T11:35:43.455Z,96724.95
2019-03-04T11:38:55.022Z,96703.80
2019-03-04T11:41:59.458Z,96722.91
2019-03-04T11:45:05.507Z,96707.98
2019-03-04T11:48:09.938Z,96699.61
2019-03-04T11:51:14.388Z,96687.23
2019-03-04T11:54:18.827Z,96680.20
2019-03-04T11:57:23.614Z,96695.06
2019-03-04T12:00:39.665Z,96689.22
2019-03-04T12:03:44.339Z,96689.36
2019-03-04T12:06:48.779Z,96690.53
2019-03-04T12:09:53.498Z,96673.80
2019-03-04T12:12:57.932Z,96654.39
2019-03-04T12:16:02.387Z,96654.00
2019-03-04T12:19:07.502Z,96647.88
2019-03-04T12:22:11.941Z,96642.68
2019-03-04T12:25:21.310Z,96657.18
2019-03-04T12:28:25.748Z,96648.43
2019-03-04T12:31:31.825Z,96652.30
2019-03-04T12:34:36.265Z,96658.42
2019-03-04T12:37:41.044Z,96637.38
2019-03-04T12:40:45.818Z,96630.52
2019-03-04T12:43:50.263Z,96653.19
2019-03-04T12:46:54.979Z,96636.36
2019-03-04T12:49:59.428Z,96640.16
2019-03-04T12:53:04.744Z,96635.34
2019-03-04T12:56:09.188Z,96663.94
2019-03-04T12:59:13.621Z,96623.91
2019-03-04T13:02:18.077Z,96607.03
2019-03-04T13:05:22.598Z,96604.85
2019-03-04T13:08:27.270Z,96609.25
2019-03-04T13:11:31.715Z,96608.23
2019-03-04T13:14:36.172Z,96617.28
2019-03-04T13:17:40.674Z,96612.80
2019-03-04T13:20:45.287Z,96616.67
2019-03-04T13:23:49.729Z,96603.57
2019-03-04T13:26:54.428Z,96569.92
2019-03-04T13:29:58.865Z,96566.55
2019-03-04T13:33:03.580Z,96559.34
2019-03-04T13:36:08.936Z,96546.69
2019-03-04T13:39:13.655Z,96535.27
2019-03-04T13:42:18.101Z,96532.87
2019-03-04T13:45:23.123Z,96551.06
2019-03-04T13:48:27.563Z,96544.41
2019-03-04T13:51:32.012Z,96554.59
2019-03-04T13:54:36.696Z,96558.91
2019-03-04T13:57:42.248Z,96558.75
2019-03-04T14:00:46.978Z,96566.34
2019-03-04T14:03:51.720Z,96544.13
2019-03-04T14:06:56.148Z,96569.91
2019-03-04T14:10:00.580Z,96558.83
2019-03-04T14:13:05.093Z,96588.51
2019-03-04T14:16:09.820Z,96573.14
2019-03-04T14:19:14.241Z,96563.67
2019-03-04T14:22:18.679Z,96545.49
2019-03-04T14:25:23.116Z,96540.89
2019-03-04T14:28:28.438Z,96547.41
2019-03-04T14:31:32.974Z,96525.56
2019-03-04T14:34:37.696Z,96546.21
2019-03-04T14:37:43.146Z,96563.45
2019-03-04T14:40:47.582Z,96555.61
2019-03-04T14:43:52.027Z,96557.38
2019-03-04T14:46:56.473Z,96553.41
2019-03-04T14:50:09.508Z,96583.66
2019-03-04T14:53:07.086Z,96536.66
2019-03-04T14:56:11.827Z,96543.94
2019-03-04T14:59:16.270Z,96538.61
2019-03-04T15:02:20.710Z,96518.02
2019-03-04T15:05:25.400Z,96530.11
2019-03-04T15:08:30.133Z,96550.15
2019-03-04T15:11:34.588Z,96566.48
2019-03-04T15:14:39.287Z,96578.84
2019-03-04T15:17:43.731Z,96560.45
2019-03-04T15:20:48.158Z,96580.39
2019-03-04T15:23:52.864Z,96606.36
2019-03-04T15:26:57.696Z,96630.41
2019-03-04T15:30:02.141Z,96643.16
2019-03-04T15:33:06.573Z,96719.52
2019-03-04T15:36:11.007Z,96672.88
2019-03-04T15:39:22.507Z,96730.16
2019-03-04T15:42:21.894Z,96759.02
2019-03-04T15:45:26.334Z,96798.16
2019-03-04T15:48:31.044Z,96801.94
2019-03-04T15:51:36.877Z,96826.87
2019-03-04T15:54:41.312Z,96802.67
2019-03-04T15:57:45.774Z,96855.86
2019-03-04T16:00:50.554Z,96867.23
2019-03-04T16:03:54.986Z,96848.13
2019-03-04T16:06:59.415Z,96828.92
2019-03-04T16:10:06.687Z,96817.31
2019-03-04T16:13:11.194Z,96822.32
2019-03-04T16:16:15.669Z,96824.55
2019-03-04T16:19:20.382Z,96824.20
2019-03-04T16:22:24.797Z,96831.89
2019-03-04T16:25:29.532Z,96839.61
2019-03-04T16:28:34.255Z,96843.58
2019-03-04T16:31:38.986Z,96840.11
2019-03-04T16:34:43.421Z,96842.00
2019-03-04T16:37:47.844Z,96826.67
2019-03-04T16:40:52.277Z,96830.37
2019-03-04T16:43:56.708Z,96826.09
2019-03-04T16:47:01.418Z,96847.55
2019-03-04T16:50:10.647Z,96881.64
2019-03-04T16:53:22.498Z,96903.45
2019-03-04T16:56:26.930Z,96906.39
2019-03-04T16:59:31.369Z,96895.20
2019-03-04T17:02:35.801Z,96904.48
2019-03-04T17:05:40.227Z,96927.44
2019-03-04T17:08:44.969Z,96941.30
2019-03-04T17:11:49.402Z,96952.10
2019-03-04T17:14:53.832Z,96961.98
2019-03-04T17:17:58.547Z,96981.27
2019-03-04T17:21:03.277Z,96991.80
2019-03-04T17:24:08.554Z,97007.09
2019-03-04T17:27:13.254Z,97012.94
2019-03-04T17:30:25.429Z,97011.52
2019-03-04T17:33:29.864Z,97014.91
2019-03-04T17:36:34.297Z,97024.01
2019-03-04T17:39:39.038Z,97022.59
2019-03-04T17:42:43.704Z,97035.39
2019-03-04T17:45:48.141Z,97040.44
2019-03-04T17:48:52.564Z,97055.94
2019-03-04T17:51:57.000Z,97059.94
2019-03-04T17:55:01.775Z,97064.55
2019-03-04T17:58:06.913Z,97070.83
2019-03-04T18:01:11.348Z,97084.84
2019-03-04T18:04:16.063Z,97084.89
2019-03-04T18:07:20.501Z,97090.64
2019-03-04T18:10:25.004Z,97106.56
2019-03-04T18:13:29.431Z,97107.99
2019-03-04T18:16:33.865Z,97116.14
2019-03-04T18:19:38.287Z,97124.81
2019-03-04T18:22:42.861Z,97130.88
2019-03-04T18:26:04.119Z,97137.24
2019-03-04T18:29:19.209Z,97143.94
2019-03-04T18:32:40.581Z,97154.42
2019-03-04T18:36:11.937Z,97154.44
2019-03-04T18:39:59.418Z,97170.02
2019-03-04T18:43:40.995Z,97173.80
2019-03-04T18:47:15.533Z,97175.88
2019-03-04T18:50:20.055Z,97177.34
2019-03-04T18:53:24.489Z,97179.93
2019-03-04T18:56:29.216Z,97189.28
2019-03-04T18:59:33.951Z,97188.75
2019-03-04T19:02:38.386Z,97198.66
2019-03-04T19:05:42.826Z,97201.16
2019-03-04T19:08:47.250Z,97206.14
2019-03-04T19:11:51.981Z,97199.14
2019-03-04T19:14:56.472Z,97202.55
2019-03-04T19:18:00.904Z,97204.64
2019-03-04T19:21:05.424Z,97208.19
2019-03-04T19:24:09.856Z,97209.35
2019-03-04T19:27:14.291Z,97199.08
2019-03-04T19:30:18.715Z,97208.11
2019-03-04T19:33:23.148Z,97207.70
2019-03-04T19:36:27.582Z,97215.26
2019-03-04T19:39:32.354Z,97226.09
2019-03-04T19:42:36.790Z,97228.22
2019-03-04T19:45:41.531Z,97232.17
2019-03-04T19:48:46.257Z,97231.33
2019-03-04T19:51:50.996Z,97235.94
2019-03-04T19:54:55.416Z,97247.67
2019-03-04T19:57:59.922Z,97252.71
2019-03-04T20:01:04.433Z,97270.57
2019-03-04T20:04:08.852Z,97265.55
2019-03-04T20:07:13.818Z,97265.09
2019-03-04T20:10:19.181Z,97276.00
2019-03-04T20:13:24.009Z,97281.11
2019-03-04T20:16:28.446Z,97285.61
2019-03-04T20:19:32.873Z,97291.03
2019-03-04T20:22:37.590Z,97295.12
2019-03-04T20:25:42.082Z,97291.15
2019-03-04T20:28:46.518Z,97299.18
2019-03-04T20:31:51.265Z,97294.91
2019-03-04T20:34:55.695Z,97300.27
2019-03-04T20:38:10.675Z,97293.33
2019-03-04T20:41:15.130Z,97306.42
2019-03-04T20:44:19.850Z,97294.44
2019-03-04T20:47:24.543Z,97296.57
2019-03-04T20:50:28.975Z,97296.52
2019-03-04T20:53:33.488Z,97300.09
2019-03-04T20:56:37.921Z,97301.69
2019-03-04T20:59:42.346Z,97309.92
2019-03-04T21:02:46.867Z,97319.77
2019-03-04T21:05:51.418Z,97321.91
2019-03-04T21:08:56.116Z,97337.37
2019-03-04T21:12:00.553Z,97338.17
2019-03-04T21:15:08.830Z,97345.90
2019-03-04T21:18:13.793Z,97353.11
2019-03-04T21:21:18.224Z,97359.22
2019-03-04T21:24:22.648Z,97350.96
2019-03-04T21:27:27.225Z,97360.57
2019-03-04T21:31:02.229Z,97358.96
2019-03-04T21:34:11.584Z,97357.90
2019-03-04T21:37:29.803Z,97365.34
2019-03-04T21:40:39.237Z,97373.63
2019-03-04T21:43:48.445Z,97380.55
2019-03-04T21:47:27.723Z,97381.61
2019-03-04T21:50:48.587Z,97390.41
2019-03-04T21:53:53.764Z,97400.26
2019-03-04T21:57:05.701Z,97406.66
2019-03-04T22:00:15.784Z,97410.66
2019-03-04T22:03:21.865Z,97410.39
2019-03-04T22:06:26.918Z,97411.70
2019-03-04T22:09:32.366Z,97411.97
2019-03-04T22:12:36.880Z,97404.52
2019-03-04T22:15:41.394Z,97399.47
2019-03-04T22:18:45.872Z,97405.86
2019-03-04T22:21:50.382Z,97391.73
2019-03-04T22:24:55.096Z,97397.33
2019-03-04T22:27:59.963Z,97395.73
2019-03-04T22:31:04.688Z,97395.45
2019-03-04T22:34:09.402Z,97401.05
2019-03-04T22:37:13.838Z,97399.47
2019-03-04T22:40:24.395Z,97398.39
2019-03-04T22:43:29.117Z,97396.54
2019-03-04T22:46:33.592Z,97402.13
2019-03-04T22:49:38.265Z,97409.05
2019-03-04T22:52:42.804Z,97415.72
2019-03-04T22:55:47.199Z,97409.04
2019-03-04T22:58:51.640Z,97414.63
2019-03-04T23:01:56.931Z,97418.89
2019-03-04T23:05:02.534Z,97415.44
2019-03-04T23:08:07.369Z,97416.77
2019-03-04T23:11:12.210Z,97412.52
2019-03-04T23:14:27.181Z,97430.05
2019-03-04T23:17:31.915Z,97434.05
2019-03-04T23:20:36.347Z,97438.56
2019-03-04T23:23:40.790Z,97446.04
2019-03-04T23:26:45.215Z,97448.99
2019-03-04T23:29:49.915Z,97456.45
2019-03-04T23:32:54.347Z,97452.70
2019-03-04T23:35:58.779Z,97458.83
2019-03-04T23:39:04.785Z,97459.61
2019-03-04T23:42:09.216Z,97459.10
2019-03-04T23:45:14.177Z,97450.03
2019-03-04T23:48:18.597Z,97447.37
2019-03-04T23:51:23.327Z,97445.77
2019-03-04T23:54:27.769Z,97441.75
2019-03-04T23:57:32.184Z,97446.27
